Oil Center, New Mexico
Current Conditions -  °F | °C
As of 6:50 AM on Thursday 29 Jan 2015 (Local Time) from KHOB Reporting Station
Clear Clear  
Wind Chill: 37°   Ceiling: Unl
Heat Index: 45°   Visibility: 10mi
Dew Point: 36°   Wind: 16mph
Humidity: 71%   Direction: 20°NNE
Pressure: 30.31"   Gusts: NA
Location:  32.6132°N, 103.326°W
Report Text: KHOB 291350Z 02014KT 10SM SKC 07/02 A3031
Loading
Personal Weather Stations






























Interactive Weather Map New forecast layout! Learn more

10-Day Weather Forecast

Advertisements
Track Severe Weather on mobile